Time;durP1;ratioP1;P1;durP2;ratioP2;P2;SDS_P1;SDS_P2;PMS_P1;PMS_P2;Temp;Humidity;BMP_temperature;BMP_pressure;BME280_temperature;BME280_humidity;BME280_pressure;Samples;Min_cycle;Max_cycle;Signal;HPM_P1;HPM_P2
2022/11/12 00:02:10;;;;;;;15.68;12.30;;;;;;;-146.48;100.00;60459.00;5305759;28;20090;-75
2022/11/12 00:04:41;;;;;;;15.30;12.25;;;;;;;-146.48;100.00;60459.00;5305743;28;20038;-75
2022/11/12 00:07:12;;;;;;;18.40;12.02;;;;;;;-146.48;100.00;60459.00;5305452;28;20467;-76
2022/11/12 00:09:44;;;;;;;17.48;12.60;;;;;;;-146.48;100.00;60459.00;5305459;28;20364;-75
2022/11/12 00:12:15;;;;;;;15.43;12.43;;;;;;;-146.48;100.00;60459.00;5305794;28;20051;-75
2022/11/12 00:14:46;;;;;;;16.80;12.57;;;;;;;-146.48;100.00;60459.00;5306284;28;20035;-75
2022/11/12 00:17:17;;;;;;;15.32;11.93;;;;;;;-146.48;100.00;60459.00;5304768;28;20057;-75
2022/11/12 00:19:49;;;;;;;16.55;12.15;;;;;;;-146.48;100.00;60459.00;5306121;28;20031;-75
2022/11/12 00:22:20;;;;;;;18.77;12.73;;;;;;;-146.48;100.00;60459.00;5304647;28;20039;-75
2022/11/12 00:24:52;;;;;;;15.45;11.95;;;;;;;-146.48;100.00;60459.00;5305976;28;20085;-75
2022/11/12 00:27:23;;;;;;;14.55;12.52;;;;;;;-146.48;100.00;60459.00;5305427;28;20528;-75
2022/11/12 00:29:54;;;;;;;18.00;13.05;;;;;;;-146.48;100.00;60459.00;5305094;28;20034;-75
2022/11/12 00:32:26;;;;;;;15.48;12.32;;;;;;;-146.48;100.00;60459.00;5305238;28;20429;-75
2022/11/12 00:34:57;;;;;;;16.75;12.32;;;;;;;-146.48;100.00;60459.00;5305658;28;20521;-75
2022/11/12 00:37:28;;;;;;;15.77;12.60;;;;;;;-146.48;100.00;60459.00;5304409;28;20039;-75
2022/11/12 00:40:00;;;;;;;14.23;11.05;;;;;;;-146.48;100.00;60459.00;5305831;28;20080;-75
2022/11/12 00:42:31;;;;;;;14.65;11.85;;;;;;;-146.48;100.00;60459.00;5305095;28;20028;-75
2022/11/12 00:45:03;;;;;;;17.65;12.45;;;;;;;-146.48;100.00;60459.00;5304831;28;20039;-75
2022/11/12 00:47:34;;;;;;;16.65;12.80;;;;;;;-146.48;100.00;60459.00;5305026;28;20038;-75
2022/11/12 00:50:06;;;;;;;15.93;11.90;;;;;;;-146.48;100.00;60459.00;5305616;28;20024;-75
2022/11/12 00:52:37;;;;;;;14.98;12.10;;;;;;;-146.48;100.00;60459.00;5304237;28;20035;-75
2022/11/12 00:55:09;;;;;;;16.55;12.68;;;;;;;-146.48;100.00;60459.00;5305338;28;20038;-75
2022/11/12 00:57:40;;;;;;;15.30;11.90;;;;;;;-146.48;100.00;60459.00;5303859;28;20082;-75
2022/11/12 01:00:15;;;;;;;16.25;12.73;;;;;;;-146.48;100.00;60459.00;5305261;28;20020;-76
2022/11/12 01:02:46;;;;;;;14.75;10.95;;;;;;;-146.48;100.00;60459.00;5305444;28;20051;-75
2022/11/12 01:05:18;;;;;;;17.63;12.48;;;;;;;-146.48;100.00;60459.00;5303878;28;20025;-75
2022/11/12 01:07:50;;;;;;;16.25;11.23;;;;;;;-146.48;100.00;60459.00;5305163;28;20032;-75
2022/11/12 01:10:21;;;;;;;18.30;12.70;;;;;;;-146.48;100.00;60459.00;5304430;28;20040;-75
2022/11/12 01:12:53;;;;;;;13.43;11.45;;;;;;;-146.48;100.00;60459.00;5304443;28;20035;-75
2022/11/12 01:15:24;;;;;;;13.10;11.50;;;;;;;-146.48;100.00;60459.00;5304578;28;20468;-75
2022/11/12 01:17:55;;;;;;;15.95;12.43;;;;;;;-146.48;100.00;60459.00;5304951;28;20028;-75
2022/11/12 01:20:27;;;;;;;14.50;11.40;;;;;;;-146.48;100.00;60459.00;5303468;28;20028;-75
2022/11/12 01:22:58;;;;;;;14.88;11.65;;;;;;;-146.48;100.00;60459.00;5304709;28;20039;-75
2022/11/12 01:25:29;;;;;;;13.30;11.15;;;;;;;-146.48;100.00;60459.00;5303365;28;20024;-76
2022/11/12 01:28:01;;;;;;;15.05;11.60;;;;;;;-146.48;100.00;60459.00;5304781;28;20016;-75
2022/11/12 01:30:32;;;;;;;16.85;11.90;;;;;;;-146.48;100.00;60459.00;5304122;28;20028;-75
2022/11/12 01:33:03;;;;;;;13.57;11.45;;;;;;;-146.48;100.00;60459.00;5303566;28;20024;-75
2022/11/12 01:35:34;;;;;;;13.15;11.13;;;;;;;-146.48;100.00;60459.00;5304162;28;20032;-75
2022/11/12 01:38:06;;;;;;;14.02;10.63;;;;;;;-146.48;100.00;60459.00;5304601;28;20028;-75
2022/11/12 01:40:37;;;;;;;12.80;11.07;;;;;;;-146.48;100.00;60459.00;5303242;28;20020;-75
2022/11/12 01:43:14;;;;;;;13.00;10.63;;;;;;;-146.48;100.00;60459.00;5304520;28;20019;-75
2022/11/12 01:45:48;;;;;;;14.55;11.30;;;;;;;-146.48;100.00;60459.00;5304509;28;20038;-75
2022/11/12 01:48:32;;;;;;;13.57;10.63;;;;;;;-146.48;100.00;60459.00;5303100;28;20043;-75
2022/11/12 01:51:05;;;;;;;12.45;10.50;;;;;;;-146.48;100.00;60459.00;5304407;28;20383;-75
2022/11/12 01:53:44;;;;;;;14.45;10.88;;;;;;;-146.48;100.00;60459.00;5302806;28;20031;-76
2022/11/12 01:56:17;;;;;;;14.50;10.65;;;;;;;-146.48;100.00;60459.00;5303618;28;20077;-75
2022/11/12 01:58:54;;;;;;;12.10;10.88;;;;;;;-146.48;100.00;60459.00;5304259;28;20483;-75
2022/11/12 02:01:26;;;;;;;15.27;11.88;;;;;;;-146.48;100.00;60459.00;5302679;28;20111;-75
2022/11/12 02:03:57;;;;;;;12.52;10.48;;;;;;;-146.48;100.00;60459.00;5304216;28;20123;-74
2022/11/12 02:06:30;;;;;;;13.32;11.40;;;;;;;-146.48;100.00;60459.00;5303382;28;20471;-75
2022/11/12 02:09:02;;;;;;;14.27;11.23;;;;;;;-146.48;100.00;60459.00;5303077;28;20031;-74
2022/11/12 02:11:33;;;;;;;16.92;11.50;;;;;;;-146.48;100.00;60459.00;5303474;28;20479;-74
2022/11/12 02:14:04;;;;;;;13.45;11.73;;;;;;;-146.48;100.00;60459.00;5303971;28;20024;-74
2022/11/12 02:16:39;;;;;;;14.32;11.60;;;;;;;-146.48;100.00;60459.00;5301919;28;20051;-74
2022/11/12 02:19:13;;;;;;;15.75;11.50;;;;;;;-146.48;100.00;60459.00;5303807;28;20424;-74
2022/11/12 02:21:44;;;;;;;14.32;11.10;;;;;;;-146.48;100.00;60459.00;5302868;28;20024;-77
2022/11/12 02:24:15;;;;;;;13.00;11.02;;;;;;;-146.48;100.00;60459.00;5303190;28;20497;-77
2022/11/12 02:26:51;;;;;;;14.05;11.43;;;;;;;-146.48;100.00;60459.00;5303578;28;20032;-77
2022/11/12 02:29:23;;;;;;;15.52;10.95;;;;;;;-146.48;100.00;60459.00;5302112;28;20138;-77
2022/11/12 02:31:54;;;;;;;12.70;10.88;;;;;;;-146.48;100.00;60459.00;5303782;28;20481;-76
2022/11/12 02:34:25;;;;;;;15.20;12.02;;;;;;;-146.48;100.00;60459.00;5302771;28;20067;-74
2022/11/12 02:36:56;;;;;;;16.42;10.55;;;;;;;-146.48;100.00;60459.00;5302630;28;20035;-76
2022/11/12 02:39:28;;;;;;;12.98;10.55;;;;;;;-146.48;100.00;60459.00;5302680;28;20016;-77
2022/11/12 02:41:59;;;;;;;14.02;11.10;;;;;;;-146.48;100.00;60459.00;5303290;28;20054;-78
2022/11/12 02:44:31;;;;;;;14.98;11.55;;;;;;;-146.48;100.00;60459.00;5302044;28;20031;-77
2022/11/12 02:47:02;;;;;;;14.70;11.30;;;;;;;-146.48;100.00;60459.00;5303427;28;20043;-77
2022/11/12 02:49:33;;;;;;;14.00;11.43;;;;;;;-146.48;100.00;60459.00;5302663;28;20028;-77
2022/11/12 02:52:04;;;;;;;15.30;11.65;;;;;;;-146.48;100.00;60459.00;5302286;28;20028;-77
2022/11/12 02:54:36;;;;;;;16.67;12.27;;;;;;;-146.48;100.00;60459.00;5302920;28;20407;-76
2022/11/12 02:57:07;;;;;;;13.98;11.20;;;;;;;-146.48;100.00;60459.00;5302166;28;20032;-77
2022/11/12 02:59:38;;;;;;;15.23;11.40;;;;;;;-146.48;100.00;60459.00;5302323;28;20472;-75
2022/11/12 03:02:09;;;;;;;14.05;10.88;;;;;;;-146.48;100.00;60459.00;5303034;28;20463;-75
2022/11/12 03:04:41;;;;;;;13.55;10.77;;;;;;;-146.48;100.00;60459.00;5301530;28;20425;-75
2022/11/12 03:07:12;;;;;;;17.10;11.32;;;;;;;-146.48;100.00;60459.00;5301829;28;20026;-76
2022/11/12 03:09:43;;;;;;;14.00;10.82;;;;;;;-146.48;100.00;60459.00;5302787;28;20502;-76
2022/11/12 03:12:15;;;;;;;13.15;10.40;;;;;;;-146.48;100.00;60459.00;5301546;28;20081;-76
2022/11/12 03:14:46;;;;;;;13.00;10.73;;;;;;;-146.48;100.00;60459.00;5302805;28;20024;-76
2022/11/12 03:17:17;;;;;;;12.40;9.70;;;;;;;-146.48;100.00;60459.00;5301964;28;20035;-75
2022/11/12 03:19:48;;;;;;;12.68;10.10;;;;;;;-146.48;100.00;60459.00;5301954;28;20482;-75
2022/11/12 03:22:20;;;;;;;13.10;10.43;;;;;;;-146.48;100.00;60459.00;5302306;28;20467;-76
2022/11/12 03:24:51;;;;;;;12.85;9.45;;;;;;;-146.48;100.00;60459.00;5302715;28;20059;-76
2022/11/12 03:27:22;;;;;;;10.80;9.30;;;;;;;-146.48;100.00;60459.00;5301860;28;20055;-76
2022/11/12 03:29:54;;;;;;;12.80;9.88;;;;;;;-146.48;100.00;60459.00;5306715;28;20460;-76
2022/11/12 03:32:25;;;;;;;10.95;8.63;;;;;;;-146.48;100.00;60459.00;5305222;28;20040;-76
2022/11/12 03:34:56;;;;;;;10.13;8.82;;;;;;;-146.48;100.00;60459.00;5306764;28;20555;-76
2022/11/12 03:37:27;;;;;;;9.80;7.90;;;;;;;-146.48;100.00;60459.00;5305857;28;20035;-76
2022/11/12 03:39:59;;;;;;;9.93;7.75;;;;;;;-146.48;100.00;60459.00;5305878;28;20035;-77
2022/11/12 03:42:30;;;;;;;10.63;7.65;;;;;;;-146.48;100.00;60459.00;5305844;28;20549;-76
2022/11/12 03:45:01;;;;;;;9.63;7.63;;;;;;;-146.48;100.00;60459.00;5306476;28;20028;-77
2022/11/12 03:47:32;;;;;;;8.85;6.95;;;;;;;-146.48;100.00;60459.00;5305285;28;20467;-76
2022/11/12 03:50:05;;;;;;;11.73;7.53;;;;;;;-146.48;100.00;60459.00;5306225;28;20024;-77
2022/11/12 03:52:37;;;;;;;7.18;6.25;;;;;;;-146.48;100.00;60459.00;5305578;28;20024;-77
2022/11/12 03:55:08;;;;;;;8.05;6.50;;;;;;;-146.48;100.00;60459.00;5305831;28;20077;-77
2022/11/12 03:57:39;;;;;;;7.63;6.50;;;;;;;-146.48;100.00;60459.00;5305828;28;20066;-76
2022/11/12 04:00:12;;;;;;;10.90;7.38;;;;;;;-146.48;100.00;60459.00;5305509;28;20028;-77
2022/11/12 04:02:43;;;;;;;10.85;7.13;;;;;;;-146.48;100.00;60459.00;5306481;28;20059;-77
2022/11/12 04:08:36;;;;;;;8.75;6.53;;;;;;;-146.48;100.00;60459.00;5305868;28;20052;-76
2022/11/12 04:11:13;;;;;;;8.60;6.55;;;;;;;-146.48;100.00;60459.00;5306268;28;20028;-77
2022/11/12 04:13:46;;;;;;;7.65;6.22;;;;;;;-146.48;100.00;60459.00;5306230;28;20426;-77
2022/11/12 04:22:08;;;;;;;6.85;5.68;;;;;;;-146.48;100.00;60459.00;5305426;28;20028;-77
2022/11/12 04:27:33;;;;;;;8.88;6.35;;;;;;;-146.48;100.00;60459.00;5305473;28;20563;-76
2022/11/12 04:30:20;;;;;;;6.85;6.13;;;;;;;-146.48;100.00;60459.00;5305028;28;20032;-76
2022/11/12 04:32:53;;;;;;;7.50;5.47;;;;;;;-146.48;100.00;60459.00;5305841;28;20074;-77
2022/11/12 04:35:26;;;;;;;6.63;5.13;;;;;;;-146.48;100.00;60459.00;5304501;28;20043;-76
2022/11/12 04:37:57;;;;;;;7.10;6.40;;;;;;;-146.48;100.00;60459.00;5305173;28;20032;-76
2022/11/12 04:46:09;;;;;;;6.32;5.45;;;;;;;-146.48;100.00;60459.00;5305466;28;20020;-76
2022/11/12 04:48:41;;;;;;;6.38;5.32;;;;;;;-146.48;100.00;60459.00;5304763;28;20372;-76
2022/11/12 04:54:01;;;;;;;6.60;5.40;;;;;;;-146.48;100.00;60459.00;5305183;28;20036;-76
2022/11/12 04:56:33;;;;;;;6.93;6.03;;;;;;;-146.48;100.00;60459.00;5303806;28;20364;-77
2022/11/12 04:59:04;;;;;;;6.80;4.78;;;;;;;-146.48;100.00;60459.00;5305079;28;20090;-77
2022/11/12 05:01:35;;;;;;;8.70;5.80;;;;;;;-146.48;100.00;60459.00;5304501;28;20020;-77
2022/11/12 05:04:07;;;;;;;6.88;5.50;;;;;;;-146.48;100.00;60459.00;5304452;28;20021;-77
2022/11/12 05:06:50;;;;;;;6.70;5.05;;;;;;;-146.48;100.00;60459.00;5304298;28;20031;-76
2022/11/12 05:09:26;;;;;;;7.20;5.13;;;;;;;-146.48;100.00;60459.00;5304260;28;20430;-76
2022/11/12 05:11:58;;;;;;;6.55;5.03;;;;;;;-146.48;100.00;60459.00;5303977;28;20470;-77
2022/11/12 05:14:29;;;;;;;7.25;5.32;;;;;;;-146.48;100.00;60459.00;5304413;28;20095;-77
2022/11/12 05:17:00;;;;;;;8.57;5.05;;;;;;;-146.48;100.00;60459.00;5304747;28;20051;-77
2022/11/12 05:19:33;;;;;;;8.88;5.35;;;;;;;-146.48;100.00;60459.00;5303399;28;20064;-77
2022/11/12 05:22:04;;;;;;;5.55;4.75;;;;;;;-146.48;100.00;60459.00;5304537;28;20099;-77
2022/11/12 05:24:38;;;;;;;6.05;5.20;;;;;;;-146.48;100.00;60459.00;5303160;28;20115;-77
2022/11/12 05:27:13;;;;;;;7.05;5.22;;;;;;;-146.48;100.00;60459.00;5304681;28;20032;-76
2022/11/12 05:29:46;;;;;;;7.43;5.22;;;;;;;-146.48;100.00;60459.00;5304255;28;20029;-77
2022/11/12 05:32:17;;;;;;;6.53;5.40;;;;;;;-146.48;100.00;60459.00;5303232;28;20031;-77
2022/11/12 05:34:48;;;;;;;6.50;5.43;;;;;;;-146.48;100.00;60459.00;5304117;28;20040;-77
2022/11/12 05:37:20;;;;;;;5.95;4.78;;;;;;;-146.48;100.00;60459.00;5303856;28;20031;-77
2022/11/12 05:39:51;;;;;;;5.10;4.50;;;;;;;-146.48;100.00;60459.00;5303569;28;20185;-77
2022/11/12 05:42:22;;;;;;;8.90;5.50;;;;;;;-146.48;100.00;60459.00;5303661;28;20115;-77
2022/11/12 05:44:54;;;;;;;5.43;4.72;;;;;;;-146.48;100.00;60459.00;5304430;28;20035;-77
2022/11/12 05:47:25;;;;;;;7.05;5.15;;;;;;;-146.48;100.00;60459.00;5302732;28;20058;-77
2022/11/12 05:49:56;;;;;;;5.85;4.75;;;;;;;-146.48;100.00;60459.00;5303117;28;20054;-76
2022/11/12 05:52:27;;;;;;;6.65;4.95;;;;;;;-146.48;100.00;60459.00;5303114;28;20379;-77
2022/11/12 05:54:59;;;;;;;7.32;4.60;;;;;;;-146.48;100.00;60459.00;5303222;28;20374;-76
2022/11/12 05:57:30;;;;;;;7.10;5.25;;;;;;;-146.48;100.00;60459.00;5303187;28;20028;-76
2022/11/12 06:00:01;;;;;;;8.07;5.50;;;;;;;-146.48;100.00;60459.00;5302935;28;20047;-77
2022/11/12 06:02:32;;;;;;;6.93;5.30;;;;;;;-146.48;100.00;60459.00;5303216;28;20020;-76
2022/11/12 06:05:04;;;;;;;6.68;4.85;;;;;;;-146.48;100.00;60459.00;5304008;28;20390;-77
2022/11/12 06:07:35;;;;;;;6.63;4.78;;;;;;;-146.48;100.00;60459.00;5302647;28;20031;-78
2022/11/12 06:10:07;;;;;;;6.63;4.95;;;;;;;-146.48;100.00;60459.00;5303787;28;20042;-77
2022/11/12 06:12:38;;;;;;;5.82;5.15;;;;;;;-146.48;100.00;60459.00;5303376;28;20085;-77
2022/11/12 06:15:09;;;;;;;6.82;4.68;;;;;;;-146.48;100.00;60459.00;5302967;28;20028;-77
2022/11/12 06:17:41;;;;;;;7.97;5.85;;;;;;;-146.48;100.00;60459.00;5302834;28;20036;-77
2022/11/12 06:20:12;;;;;;;7.65;5.25;;;;;;;-146.48;100.00;60459.00;5302996;28;20031;-77
2022/11/12 06:22:43;;;;;;;8.18;5.18;;;;;;;-146.48;100.00;60459.00;5302707;28;20074;-77
2022/11/12 06:25:15;;;;;;;6.93;5.28;;;;;;;-146.48;100.00;60459.00;5303081;28;20024;-77
2022/11/12 06:27:47;;;;;;;7.32;5.00;;;;;;;-146.48;100.00;60459.00;5302840;28;20027;-77
2022/11/12 06:30:19;;;;;;;6.30;4.63;;;;;;;-146.48;100.00;60459.00;5302625;28;20032;-77
2022/11/12 06:32:50;;;;;;;6.88;4.63;;;;;;;-146.48;100.00;60459.00;5303317;28;20093;-76
2022/11/12 06:35:22;;;;;;;7.22;4.40;;;;;;;-146.48;100.00;60459.00;5301659;28;20078;-77
2022/11/12 06:37:54;;;;;;;4.93;4.43;;;;;;;-146.48;100.00;60459.00;5303082;28;20039;-77
2022/11/12 06:40:25;;;;;;;6.15;4.90;;;;;;;-146.48;100.00;60459.00;5302638;28;20082;-77
2022/11/12 06:42:57;;;;;;;6.40;4.50;;;;;;;-146.48;100.00;60459.00;5302237;28;20028;-77
2022/11/12 06:45:28;;;;;;;7.28;5.07;;;;;;;-146.48;100.00;60459.00;5302404;28;20012;-77
2022/11/12 06:48:00;;;;;;;6.97;5.07;;;;;;;-146.48;100.00;60459.00;5302815;28;20046;-77
2022/11/12 06:50:31;;;;;;;7.50;4.85;;;;;;;-146.48;100.00;60459.00;5301593;28;20513;-77
2022/11/12 06:53:02;;;;;;;6.38;4.43;;;;;;;-146.48;100.00;60459.00;5303001;28;20099;-76
2022/11/12 06:55:33;;;;;;;6.40;4.72;;;;;;;-146.48;100.00;60459.00;5302196;28;20024;-76
2022/11/12 06:58:05;;;;;;;7.07;5.35;;;;;;;-146.48;100.00;60459.00;5301784;28;20038;-77
2022/11/12 07:00:36;;;;;;;9.07;5.97;;;;;;;-146.48;100.00;60459.00;5302294;28;20031;-76
2022/11/12 07:03:08;;;;;;;10.23;7.32;;;;;;;-146.48;100.00;60459.00;5301961;28;20429;-76
2022/11/12 07:05:39;;;;;;;9.98;8.65;;;;;;;-146.48;100.00;60459.00;5302109;28;20055;-76
2022/11/12 07:08:11;;;;;;;10.93;7.85;;;;;;;-146.48;100.00;60459.00;5302579;28;20060;-77
2022/11/12 07:10:42;;;;;;;10.57;6.60;;;;;;;-146.48;100.00;60459.00;5301324;28;20040;-76
2022/11/12 07:13:14;;;;;;;7.35;5.70;;;;;;;-146.48;100.00;60459.00;5301818;28;20490;-76
2022/11/12 07:15:46;;;;;;;6.43;4.75;;;;;;;-146.48;100.00;60459.00;5302851;28;20486;-76
2022/11/12 07:18:17;;;;;;;5.95;4.72;;;;;;;-146.48;100.00;60459.00;5301083;28;20063;-76
2022/11/12 07:20:48;;;;;;;6.47;5.00;;;;;;;-146.48;100.00;60459.00;5302613;28;20027;-76
2022/11/12 07:23:19;;;;;;;5.95;5.13;;;;;;;-146.48;100.00;60459.00;5302065;28;20055;-74
2022/11/12 07:25:56;;;;;;;5.72;4.65;;;;;;;-146.48;100.00;60459.00;5301918;28;20028;-74
2022/11/12 07:28:28;;;;;;;6.80;4.72;;;;;;;-146.48;100.00;60459.00;5301889;28;20031;-74
2022/11/12 07:31:02;;;;;;;9.27;5.28;;;;;;;-146.48;100.00;60459.00;5302381;28;20024;-75
2022/11/12 07:33:34;;;;;;;5.25;4.10;;;;;;;-146.48;100.00;60459.00;5301155;28;20068;-75
2022/11/12 07:36:08;;;;;;;5.95;4.68;;;;;;;-146.48;100.00;60459.00;5302500;28;20078;-75
2022/11/12 07:38:41;;;;;;;6.20;4.72;;;;;;;-146.48;100.00;60459.00;5300868;28;20032;-76
2022/11/12 07:41:18;;;;;;;6.13;4.57;;;;;;;-146.48;100.00;60459.00;5301442;28;20464;-76
2022/11/12 07:43:51;;;;;;;5.97;4.35;;;;;;;-146.48;100.00;60459.00;5302353;28;20390;-77
2022/11/12 07:46:25;;;;;;;6.70;4.93;;;;;;;-146.48;100.00;60459.00;5300849;28;20099;-77
2022/11/12 07:48:56;;;;;;;7.25;5.18;;;;;;;-146.48;100.00;60459.00;5302336;28;20036;-77
2022/11/12 07:51:28;;;;;;;6.80;5.18;;;;;;;-146.48;100.00;60459.00;5301562;28;20463;-76
2022/11/12 07:54:00;;;;;;;6.57;4.53;;;;;;;-146.48;100.00;60459.00;5301384;28;20024;-77
2022/11/12 07:56:31;;;;;;;8.55;5.15;;;;;;;-146.48;100.00;60459.00;5301740;28;20353;-76
2022/11/12 07:59:03;;;;;;;7.07;4.82;;;;;;;-146.48;100.00;60459.00;5302421;28;20032;-77
2022/11/12 08:01:39;;;;;;;5.35;4.35;;;;;;;-146.48;100.00;60459.00;5300931;28;20025;-75
2022/11/12 08:04:13;;;;;;;7.88;4.97;;;;;;;-146.48;100.00;60459.00;5302278;28;20031;-76
2022/11/12 08:06:44;;;;;;;6.32;4.95;;;;;;;-146.48;100.00;60459.00;5301289;28;20077;-77
2022/11/12 08:09:15;;;;;;;6.22;4.90;;;;;;;-146.48;100.00;60459.00;5301827;28;20375;-77
2022/11/12 08:11:47;;;;;;;7.50;5.03;;;;;;;-146.48;100.00;60459.00;5302531;28;20019;-76
2022/11/12 08:14:18;;;;;;;9.07;5.20;;;;;;;-146.48;100.00;60459.00;5302739;28;20089;-77
2022/11/12 08:16:49;;;;;;;7.82;5.60;;;;;;;-146.48;100.00;60459.00;5305977;28;20024;-77
2022/11/12 08:19:20;;;;;;;10.27;5.25;;;;;;;-146.48;100.00;60459.00;5305135;28;20027;-77
2022/11/12 08:21:52;;;;;;;6.32;4.65;;;;;;;-146.48;100.00;60459.00;5307040;28;20023;-76
2022/11/12 08:24:23;;;;;;;6.38;4.65;;;;;;;-146.48;100.00;60459.00;5305516;28;20054;-76
2022/11/12 08:26:54;;;;;;;8.52;5.60;;;;;;;-146.48;100.00;60459.00;5306007;28;20027;-76
2022/11/12 08:29:25;;;;;;;5.10;4.47;;;;;;;-146.48;100.00;60459.00;5304107;28;20024;-77
2022/11/12 08:31:57;;;;;;;6.43;5.00;;;;;;;-146.48;100.00;60459.00;5305396;28;20020;-77
2022/11/12 08:34:28;;;;;;;5.90;5.28;;;;;;;-146.48;100.00;60459.00;5303526;28;20040;-76
2022/11/12 08:36:59;;;;;;;8.02;4.80;;;;;;;-146.48;100.00;60459.00;5305669;28;20020;-76
2022/11/12 08:39:31;;;;;;;6.43;5.15;;;;;;;-146.48;100.00;60459.00;5304883;28;20035;-77
2022/11/12 08:42:02;;;;;;;7.13;4.93;;;;;;;-146.48;100.00;60459.00;5304842;28;20063;-76
2022/11/12 08:44:33;;;;;;;7.32;5.45;;;;;;;-146.48;100.00;60459.00;5304859;28;20036;-77
2022/11/12 08:47:05;;;;;;;6.90;5.10;;;;;;;-146.48;100.00;60459.00;5305379;28;20024;-77
2022/11/12 08:49:36;;;;;;;8.13;4.97;;;;;;;-146.48;100.00;60459.00;5303706;28;20036;-78
2022/11/12 08:52:07;;;;;;;5.90;4.50;;;;;;;-146.48;100.00;60459.00;5304770;28;20020;-78
2022/11/12 08:54:38;;;;;;;7.35;5.03;;;;;;;-146.48;100.00;60459.00;5303702;28;20035;-78
2022/11/12 08:57:10;;;;;;;6.13;5.28;;;;;;;-146.48;100.00;60459.00;5304157;28;20126;-78
2022/11/12 08:59:41;;;;;;;7.10;5.10;;;;;;;-146.48;100.00;60459.00;5304235;28;20062;-78
2022/11/12 09:02:15;;;;;;;6.28;5.30;;;;;;;-146.48;100.00;60459.00;5303663;28;20060;-77
2022/11/12 09:04:47;;;;;;;8.63;4.70;;;;;;;-146.48;100.00;60459.00;5303900;28;20043;-79
2022/11/12 09:07:18;;;;;;;7.15;4.75;;;;;;;-146.48;100.00;60459.00;5299163;28;20028;-79
2022/11/12 09:09:49;;;;;;;11.20;5.25;;;;;;;-146.48;100.00;60459.00;5302621;28;20046;-77
2022/11/12 09:12:20;;;;;;;5.53;4.88;;;;;;;-146.48;100.00;60459.00;5303560;28;20051;-83
2022/11/12 09:14:52;;;;;;;9.38;4.40;;;;;;;-146.48;100.00;60459.00;5304249;28;20028;-81
2022/11/12 09:17:23;;;;;;;7.20;4.97;;;;;;;-146.48;100.00;60459.00;5302988;28;20074;-78
2022/11/12 09:19:54;;;;;;;9.40;4.97;;;;;;;-146.48;100.00;60459.00;5304374;28;20032;-79
2022/11/12 09:22:26;;;;;;;6.07;4.88;;;;;;;-146.48;100.00;60459.00;5303803;28;20035;-78
2022/11/12 09:24:57;;;;;;;7.05;5.47;;;;;;;-146.48;100.00;60459.00;5302294;28;20077;-78
2022/11/12 09:27:28;;;;;;;7.65;5.50;;;;;;;-146.48;100.00;60459.00;5303183;28;20495;-78
2022/11/12 09:30:00;;;;;;;6.78;5.03;;;;;;;-146.48;100.00;60459.00;5304270;28;20470;-78
2022/11/12 09:32:32;;;;;;;8.90;5.32;;;;;;;-146.48;100.00;60459.00;5302791;28;20374;-78
2022/11/12 09:35:03;;;;;;;9.68;5.57;;;;;;;-146.48;100.00;60459.00;5304026;28;20044;-78
2022/11/12 09:37:38;;;;;;;5.80;4.85;;;;;;;-146.48;100.00;60459.00;5303407;28;20028;-78
2022/11/12 09:40:17;;;;;;;6.40;4.93;;;;;;;-146.48;100.00;60459.00;5303627;28;20024;-78
2022/11/12 09:42:52;;;;;;;6.35;4.57;;;;;;;-146.48;100.00;60459.00;5304144;28;20020;-78
2022/11/12 09:45:28;;;;;;;7.25;4.93;;;;;;;-146.48;100.00;60459.00;5303079;28;20052;-78
2022/11/12 09:48:05;;;;;;;6.07;4.80;;;;;;;-146.48;100.00;60459.00;5303622;28;20106;-78
2022/11/12 09:50:41;;;;;;;6.07;4.90;;;;;;;-146.48;100.00;60459.00;5303091;28;20483;-78
2022/11/12 09:53:17;;;;;;;6.30;4.72;;;;;;;-146.48;100.00;60459.00;5302520;28;20056;-78
2022/11/12 09:55:50;;;;;;;7.15;4.68;;;;;;;-146.48;100.00;60459.00;5303707;28;20115;-78
2022/11/12 09:58:21;;;;;;;6.25;4.68;;;;;;;-146.48;100.00;60459.00;5303262;28;20042;-78
2022/11/12 10:00:55;;;;;;;6.53;4.93;;;;;;;-146.48;100.00;60459.00;5303077;28;20101;-78
2022/11/12 10:03:38;;;;;;;6.45;4.53;;;;;;;-146.48;100.00;60459.00;5303017;28;20082;-78
2022/11/12 10:06:19;;;;;;;5.35;4.45;;;;;;;-146.48;100.00;60459.00;5303096;28;20093;-78
2022/11/12 10:09:04;;;;;;;6.72;4.30;;;;;;;-146.48;100.00;60459.00;5303751;28;20024;-78
2022/11/12 10:18:32;;;;;;;5.70;3.33;;;;;;;-146.48;100.00;60459.00;5303732;28;20032;-78
2022/11/12 10:21:34;;;;;;;4.70;3.85;;;;;;;-146.48;100.00;60459.00;5305571;28;20036;-76
2022/11/12 10:24:10;;;;;;;5.00;3.38;;;;;;;-146.48;100.00;60459.00;5303850;28;20028;-77
2022/11/12 10:26:43;;;;;;;4.65;3.92;;;;;;;-146.48;100.00;60459.00;5303146;28;20031;-77
2022/11/12 10:29:55;;;;;;;6.65;3.50;;;;;;;-146.48;100.00;60459.00;5302010;28;20021;-77
2022/11/12 10:32:27;;;;;;;5.75;3.78;;;;;;;-146.48;100.00;60459.00;5302572;28;20062;-77
2022/11/12 10:34:58;;;;;;;6.75;4.35;;;;;;;-146.48;100.00;60459.00;5301645;28;20056;-76
2022/11/12 10:37:32;;;;;;;5.13;3.47;;;;;;;-146.48;100.00;60459.00;5301922;28;20044;-77
2022/11/12 10:40:33;;;;;;;5.25;3.55;;;;;;;-146.48;100.00;60459.00;5298548;28;20032;-75
2022/11/12 10:43:18;;;;;;;6.53;3.60;;;;;;;-146.48;100.00;60459.00;5301575;28;20073;-75
2022/11/12 10:45:50;;;;;;;5.82;3.78;;;;;;;-146.48;100.00;60459.00;5302934;28;20024;-79
2022/11/12 10:48:32;;;;;;;6.10;4.45;;;;;;;-146.48;100.00;60459.00;5301346;28;20035;-76
2022/11/12 10:51:19;;;;;;;6.70;4.18;;;;;;;-146.48;100.00;60459.00;5302931;28;20085;-77
2022/11/12 10:53:50;;;;;;;5.43;3.83;;;;;;;-146.48;100.00;60459.00;5302818;28;20074;-76
2022/11/12 10:56:22;;;;;;;5.45;4.30;;;;;;;-146.48;100.00;60459.00;5301064;28;20032;-76
2022/11/12 10:59:14;;;;;;;6.25;4.03;;;;;;;-146.48;100.00;60459.00;5302415;28;20479;-76
2022/11/12 11:01:57;;;;;;;5.43;3.63;;;;;;;-146.48;100.00;60459.00;5302172;28;20089;-76
2022/11/12 11:04:33;;;;;;;7.00;4.25;;;;;;;-146.48;100.00;60459.00;5299507;28;20365;-75
2022/11/12 11:07:15;;;;;;;5.35;3.47;;;;;;;-146.48;100.00;60459.00;5300346;28;20031;-77
2022/11/12 11:09:55;;;;;;;5.68;4.13;;;;;;;-146.48;100.00;60459.00;5299422;28;20032;-77
2022/11/12 11:12:29;;;;;;;4.53;3.67;;;;;;;-146.48;100.00;60459.00;5299551;28;20032;-77
2022/11/12 11:15:16;;;;;;;5.43;4.07;;;;;;;-146.48;100.00;60459.00;5300416;28;20028;-77
2022/11/12 11:17:48;;;;;;;6.00;3.90;;;;;;;-146.48;100.00;60459.00;5299431;28;20031;-76
2022/11/12 11:20:28;;;;;;;4.57;4.13;;;;;;;-146.48;100.00;60459.00;5301631;28;20020;-77
2022/11/12 11:23:05;;;;;;;5.10;4.60;;;;;;;-146.48;100.00;60459.00;5302769;28;20020;-77
2022/11/12 11:25:38;;;;;;;4.88;3.58;;;;;;;-146.48;100.00;60459.00;5300901;28;20042;-76
2022/11/12 11:28:24;;;;;;;5.15;3.40;;;;;;;-146.48;100.00;60459.00;5302553;28;20480;-77
2022/11/12 11:31:05;;;;;;;7.20;3.42;;;;;;;-146.48;100.00;60459.00;5301469;28;20129;-77
2022/11/12 11:33:49;;;;;;;6.78;3.95;;;;;;;-146.48;100.00;60459.00;5301567;28;20036;-77
2022/11/12 11:36:31;;;;;;;4.80;4.03;;;;;;;-146.48;100.00;60459.00;5301541;28;20096;-77
2022/11/12 11:39:14;;;;;;;3.17;2.63;;;;;;;-146.48;100.00;60459.00;5301600;28;20154;-77
2022/11/12 11:41:51;;;;;;;4.72;2.92;;;;;;;-146.48;100.00;60459.00;5302733;28;20036;-76
2022/11/12 11:44:41;;;;;;;7.22;3.35;;;;;;;-146.48;100.00;60459.00;5301214;28;20073;-77
2022/11/12 11:47:29;;;;;;;4.60;2.85;;;;;;;-146.48;100.00;60459.00;5301978;28;20032;-77
2022/11/12 11:50:24;;;;;;;3.35;2.20;;;;;;;-146.48;100.00;60459.00;5305569;28;20027;-76
2022/11/12 11:53:25;;;;;;;5.25;2.17;;;;;;;-146.48;100.00;60459.00;5305778;28;20077;-76
2022/11/12 11:56:09;;;;;;;4.85;3.20;;;;;;;-146.48;100.00;60459.00;5303853;28;20040;-76
2022/11/12 11:59:00;;;;;;;2.70;2.10;;;;;;;-146.48;100.00;60459.00;5304951;28;20032;-77
2022/11/12 12:01:41;;;;;;;3.17;1.75;;;;;;;-146.48;100.00;60459.00;5305592;28;20027;-76